Carlton, MN

1:11 AM CDT on May 25, 2015 (GMT -0500)
Moose Lake-Carlton County | | Change Station
CLOSE
Current Station
Airport
Location: Moose Lake,
Elevation: 1076 ft
Nearby Weather Stations

Elev 1076 ft 46.42 °N, 92.80 °W | Updated 35 minutes ago

Rain
Rain
57 °F
Feels Like 57 °F
N
4
Wind Variable Wind from NE

Today
High -- | Low -- °F
--% Chance of Precip.
Yesterday
High -- | Low -- °F
Precip. -- in
5:25 AM 8:49 PM
Waxing Crescent, 46% visible
Pressure 29.84 in
Visibility 7.0 miles
Clouds Mostly Cloudy 600 ft
Mostly Cloudy 1200 ft
Overcast 4000 ft
Dew Point 55 °F
Humidity 94%
Rainfall 0.00 in
Snow Depth Not available.
UV 0 out of 12
Pollen 8.10 out of 12
Air Quality Not available.
Flu Activity Sporadic
METAR KMZH 250536Z AUTO 05003KT 7SM -RA BKN006 BKN012 OVC040 14/13 A2984 RMK AO2

More Conditions Fewer Conditions

Pressure 29.84 in
Visibility 7.0 miles
Clouds Mostly Cloudy 600 ft
Mostly Cloudy 1200 ft
Overcast 4000 ft
Dew Point 55 °F
Humidity 94%
Rainfall 0.00 in
Snow Depth Not available.
UV 0 out of 12
Pollen 8.10 out of 12
Air Quality Not available.
Flu Activity Sporadic
METAR KMZH 250536Z AUTO 05003KT 7SM -RA BKN006 BKN012 OVC040 14/13 A2984 RMK AO2

More Conditions Fewer Conditions

10-Day Weather Forecast

Almanac

Astronomy

May. 25, 2015 Rise Set
Actual Time
Civil Twilight
Nautical Twilight
Astronomical Twilight
Moon
Length of Visible Light
Length of Day
Tomorrow will be .
, % of the Moon is Illuminated

Today's Extremes

State Highs State Lows

Community

WunderPhotos

Upload Photos

1,823,957 photos uploaded!

WunderBlogs® & News

Nearby

Air Quality

  Air Quality AQ Index Pollutant
Not available.

Snow Depth

Station Depth Elevation

Earthquake Activity

City Distance Mag. Time & Date
Minimum magnitude displayed is 2.5.

Coastal Water Temperatures

Place Temperature

Stations

Nearby Weather Stations

Station Location Temp. Windchill Dew Point Humidity Wind Precip. Elev Updated Type